sensor_id;sensor_type;location;lat;lon;timestamp;temperature;humidity
21353;DHT22;10834;52.268;6.770;2023-07-09T00:00:15;22.20;99.90
21353;DHT22;10834;52.268;6.770;2023-07-09T00:03:02;22.30;99.90
21353;DHT22;10834;52.268;6.770;2023-07-09T00:05:49;22.20;99.90
21353;DHT22;10834;52.268;6.770;2023-07-09T00:08:35;22.10;99.90
21353;DHT22;10834;52.268;6.770;2023-07-09T00:11:21;22.10;99.90
21353;DHT22;10834;52.268;6.770;2023-07-09T00:14:12;22.10;99.90
21353;DHT22;10834;52.268;6.770;2023-07-09T00:16:58;22.00;99.90
21353;DHT22;10834;52.268;6.770;2023-07-09T00:19:44;22.00;99.90
21353;DHT22;10834;52.268;6.770;2023-07-09T00:22:31;21.90;99.90
21353;DHT22;10834;52.268;6.770;2023-07-09T00:25:17;21.90;99.90
21353;DHT22;10834;52.268;6.770;2023-07-09T00:28:04;21.80;99.90
21353;DHT22;10834;52.268;6.770;2023-07-09T00:30:50;21.70;99.90
21353;DHT22;10834;52.268;6.770;2023-07-09T00:33:36;21.70;99.90
21353;DHT22;10834;52.268;6.770;2023-07-09T00:36:28;21.70;99.90
21353;DHT22;10834;52.268;6.770;2023-07-09T00:39:19;21.60;99.90
21353;DHT22;10834;52.268;6.770;2023-07-09T00:42:08;21.50;99.90
21353;DHT22;10834;52.268;6.770;2023-07-09T00:44:56;21.50;99.90
21353;DHT22;10834;52.268;6.770;2023-07-09T00:50:48;21.40;99.90
21353;DHT22;10834;52.268;6.770;2023-07-09T00:53:35;21.30;99.90
21353;DHT22;10834;52.268;6.770;2023-07-09T00:56:33;21.30;99.90
21353;DHT22;10834;52.268;6.770;2023-07-09T00:59:26;21.20;99.90
21353;DHT22;10834;52.268;6.770;2023-07-09T01:02:15;21.10;99.90
21353;DHT22;10834;52.268;6.770;2023-07-09T01:05:02;21.10;99.90
21353;DHT22;10834;52.268;6.770;2023-07-09T01:07:49;21.00;99.90
21353;DHT22;10834;52.268;6.770;2023-07-09T01:10:35;20.90;99.90
21353;DHT22;10834;52.268;6.770;2023-07-09T01:13:21;20.90;99.90
21353;DHT22;10834;52.268;6.770;2023-07-09T01:16:07;20.90;99.90
21353;DHT22;10834;52.268;6.770;2023-07-09T01:18:54;20.90;99.90
21353;DHT22;10834;52.268;6.770;2023-07-09T01:21:40;20.80;99.90
21353;DHT22;10834;52.268;6.770;2023-07-09T01:27:44;20.80;99.90
21353;DHT22;10834;52.268;6.770;2023-07-09T01:30:36;20.80;99.90
21353;DHT22;10834;52.268;6.770;2023-07-09T01:33:22;20.80;99.90
21353;DHT22;10834;52.268;6.770;2023-07-09T01:36:10;20.80;99.90
21353;DHT22;10834;52.268;6.770;2023-07-09T01:38:59;20.70;99.90
21353;DHT22;10834;52.268;6.770;2023-07-09T01:41:46;20.60;99.90
21353;DHT22;10834;52.268;6.770;2023-07-09T01:44:34;20.60;99.90
21353;DHT22;10834;52.268;6.770;2023-07-09T01:47:22;20.60;99.90
21353;DHT22;10834;52.268;6.770;2023-07-09T01:50:10;20.50;99.90
21353;DHT22;10834;52.268;6.770;2023-07-09T01:52:57;20.50;99.90
21353;DHT22;10834;52.268;6.770;2023-07-09T01:55:44;20.40;99.90
21353;DHT22;10834;52.268;6.770;2023-07-09T01:58:30;20.40;99.90
21353;DHT22;10834;52.268;6.770;2023-07-09T02:01:17;20.40;99.90
21353;DHT22;10834;52.268;6.770;2023-07-09T02:04:05;20.40;99.90
21353;DHT22;10834;52.268;6.770;2023-07-09T02:06:51;20.40;99.90
21353;DHT22;10834;52.268;6.770;2023-07-09T02:09:37;20.40;99.90
21353;DHT22;10834;52.268;6.770;2023-07-09T02:12:23;20.40;99.90
21353;DHT22;10834;52.268;6.770;2023-07-09T02:15:09;20.40;99.90
21353;DHT22;10834;52.268;6.770;2023-07-09T02:17:55;20.40;99.90
21353;DHT22;10834;52.268;6.770;2023-07-09T02:20:46;20.30;99.90
21353;DHT22;10834;52.268;6.770;2023-07-09T02:23:32;20.30;99.90
21353;DHT22;10834;52.268;6.770;2023-07-09T02:26:18;20.30;99.90
21353;DHT22;10834;52.268;6.770;2023-07-09T02:29:04;20.30;99.90
21353;DHT22;10834;52.268;6.770;2023-07-09T02:31:52;20.30;99.90
21353;DHT22;10834;52.268;6.770;2023-07-09T02:34:38;20.20;99.90
21353;DHT22;10834;52.268;6.770;2023-07-09T02:37:25;20.20;99.90
21353;DHT22;10834;52.268;6.770;2023-07-09T02:40:12;20.20;99.90
21353;DHT22;10834;52.268;6.770;2023-07-09T02:42:58;20.20;99.90
21353;DHT22;10834;52.268;6.770;2023-07-09T02:45:44;20.10;99.90
21353;DHT22;10834;52.268;6.770;2023-07-09T02:48:30;20.10;99.90
21353;DHT22;10834;52.268;6.770;2023-07-09T02:51:16;20.10;99.90
21353;DHT22;10834;52.268;6.770;2023-07-09T02:54:03;20.10;99.90
21353;DHT22;10834;52.268;6.770;2023-07-09T02:56:49;20.00;99.90
21353;DHT22;10834;52.268;6.770;2023-07-09T02:59:35;20.00;99.90
21353;DHT22;10834;52.268;6.770;2023-07-09T03:02:21;19.90;99.90
21353;DHT22;10834;52.268;6.770;2023-07-09T03:05:08;20.00;99.90
21353;DHT22;10834;52.268;6.770;2023-07-09T03:07:56;19.90;99.90
21353;DHT22;10834;52.268;6.770;2023-07-09T03:10:42;19.90;99.90
21353;DHT22;10834;52.268;6.770;2023-07-09T03:13:28;19.90;99.90
21353;DHT22;10834;52.268;6.770;2023-07-09T03:16:15;19.90;99.90
21353;DHT22;10834;52.268;6.770;2023-07-09T03:19:02;19.90;99.90
21353;DHT22;10834;52.268;6.770;2023-07-09T03:21:49;20.00;99.90
21353;DHT22;10834;52.268;6.770;2023-07-09T03:24:35;20.00;99.90
21353;DHT22;10834;52.268;6.770;2023-07-09T03:27:21;20.00;99.90
21353;DHT22;10834;52.268;6.770;2023-07-09T03:30:07;20.00;99.90
21353;DHT22;10834;52.268;6.770;2023-07-09T03:32:53;20.00;99.90
21353;DHT22;10834;52.268;6.770;2023-07-09T03:35:39;20.10;99.90
21353;DHT22;10834;52.268;6.770;2023-07-09T03:38:26;20.10;99.90
21353;DHT22;10834;52.268;6.770;2023-07-09T03:41:12;20.10;99.90
21353;DHT22;10834;52.268;6.770;2023-07-09T03:43:58;20.10;99.90
21353;DHT22;10834;52.268;6.770;2023-07-09T03:46:43;20.10;99.90
21353;DHT22;10834;52.268;6.770;2023-07-09T03:49:30;20.20;99.90
21353;DHT22;10834;52.268;6.770;2023-07-09T03:52:16;20.20;99.90
21353;DHT22;10834;52.268;6.770;2023-07-09T03:55:03;20.10;99.90
21353;DHT22;10834;52.268;6.770;2023-07-09T03:57:50;20.20;99.90
21353;DHT22;10834;52.268;6.770;2023-07-09T04:00:36;20.20;99.90
21353;DHT22;10834;52.268;6.770;2023-07-09T04:03:22;20.30;99.90
21353;DHT22;10834;52.268;6.770;2023-07-09T04:06:08;20.30;99.90
21353;DHT22;10834;52.268;6.770;2023-07-09T04:08:55;20.30;99.90
21353;DHT22;10834;52.268;6.770;2023-07-09T04:11:40;20.30;99.90
21353;DHT22;10834;52.268;6.770;2023-07-09T04:14:27;20.30;99.90
21353;DHT22;10834;52.268;6.770;2023-07-09T04:17:13;20.30;99.90
21353;DHT22;10834;52.268;6.770;2023-07-09T04:19:59;20.30;99.90
21353;DHT22;10834;52.268;6.770;2023-07-09T04:22:45;20.30;99.90
21353;DHT22;10834;52.268;6.770;2023-07-09T04:25:31;20.30;99.90
21353;DHT22;10834;52.268;6.770;2023-07-09T04:28:18;20.40;99.90
21353;DHT22;10834;52.268;6.770;2023-07-09T04:31:04;20.40;99.90
21353;DHT22;10834;52.268;6.770;2023-07-09T04:33:50;20.50;99.90
21353;DHT22;10834;52.268;6.770;2023-07-09T04:36:38;20.50;99.90
21353;DHT22;10834;52.268;6.770;2023-07-09T04:39:24;20.50;99.90
21353;DHT22;10834;52.268;6.770;2023-07-09T04:42:15;20.50;99.90
21353;DHT22;10834;52.268;6.770;2023-07-09T04:45:01;20.60;99.90
21353;DHT22;10834;52.268;6.770;2023-07-09T04:47:47;20.60;99.90
21353;DHT22;10834;52.268;6.770;2023-07-09T04:50:33;20.70;99.90
21353;DHT22;10834;52.268;6.770;2023-07-09T04:53:20;20.70;99.90
21353;DHT22;10834;52.268;6.770;2023-07-09T04:56:06;20.80;99.90
21353;DHT22;10834;52.268;6.770;2023-07-09T04:58:52;20.90;99.90
21353;DHT22;10834;52.268;6.770;2023-07-09T05:01:38;21.10;99.90
21353;DHT22;10834;52.268;6.770;2023-07-09T05:04:24;21.20;99.90
21353;DHT22;10834;52.268;6.770;2023-07-09T05:07:10;21.30;99.90
21353;DHT22;10834;52.268;6.770;2023-07-09T05:09:56;21.40;99.90
21353;DHT22;10834;52.268;6.770;2023-07-09T05:12:53;21.40;99.90
21353;DHT22;10834;52.268;6.770;2023-07-09T05:15:42;21.50;99.90
21353;DHT22;10834;52.268;6.770;2023-07-09T05:18:28;21.50;99.90
21353;DHT22;10834;52.268;6.770;2023-07-09T05:21:14;21.60;99.90
21353;DHT22;10834;52.268;6.770;2023-07-09T05:24:00;21.70;99.90
21353;DHT22;10834;52.268;6.770;2023-07-09T05:26:46;21.80;99.90
21353;DHT22;10834;52.268;6.770;2023-07-09T05:29:32;21.90;99.90
21353;DHT22;10834;52.268;6.770;2023-07-09T05:32:18;21.90;99.90
21353;DHT22;10834;52.268;6.770;2023-07-09T05:35:05;22.10;99.90
21353;DHT22;10834;52.268;6.770;2023-07-09T05:37:52;22.10;99.90
21353;DHT22;10834;52.268;6.770;2023-07-09T05:40:39;22.20;99.90
21353;DHT22;10834;52.268;6.770;2023-07-09T05:43:25;22.30;99.90
21353;DHT22;10834;52.268;6.770;2023-07-09T05:46:13;22.40;99.90
21353;DHT22;10834;52.268;6.770;2023-07-09T05:48:59;22.40;99.90
21353;DHT22;10834;52.268;6.770;2023-07-09T05:51:45;22.50;99.90
21353;DHT22;10834;52.268;6.770;2023-07-09T05:54:31;22.60;99.90
21353;DHT22;10834;52.268;6.770;2023-07-09T05:57:18;22.60;99.90
21353;DHT22;10834;52.268;6.770;2023-07-09T06:00:04;22.80;99.90
21353;DHT22;10834;52.268;6.770;2023-07-09T06:02:51;22.90;99.90
21353;DHT22;10834;52.268;6.770;2023-07-09T06:05:36;23.00;99.90
21353;DHT22;10834;52.268;6.770;2023-07-09T06:08:23;23.10;99.90
21353;DHT22;10834;52.268;6.770;2023-07-09T06:11:09;23.20;99.90
21353;DHT22;10834;52.268;6.770;2023-07-09T06:13:55;23.40;99.90
21353;DHT22;10834;52.268;6.770;2023-07-09T06:16:41;23.50;99.90
21353;DHT22;10834;52.268;6.770;2023-07-09T06:19:27;23.60;99.90
21353;DHT22;10834;52.268;6.770;2023-07-09T06:22:13;23.80;99.90
21353;DHT22;10834;52.268;6.770;2023-07-09T06:24:59;24.00;99.90
21353;DHT22;10834;52.268;6.770;2023-07-09T06:27:46;24.20;99.90
21353;DHT22;10834;52.268;6.770;2023-07-09T06:30:32;24.40;99.90
21353;DHT22;10834;52.268;6.770;2023-07-09T06:33:18;24.60;99.90
21353;DHT22;10834;52.268;6.770;2023-07-09T06:36:05;24.80;99.90
21353;DHT22;10834;52.268;6.770;2023-07-09T06:38:51;25.00;99.90
21353;DHT22;10834;52.268;6.770;2023-07-09T06:41:37;25.10;99.90
21353;DHT22;10834;52.268;6.770;2023-07-09T06:44:24;25.40;99.90
21353;DHT22;10834;52.268;6.770;2023-07-09T06:47:11;25.80;99.90
21353;DHT22;10834;52.268;6.770;2023-07-09T06:49:57;26.30;99.90
21353;DHT22;10834;52.268;6.770;2023-07-09T06:52:43;26.50;99.90
21353;DHT22;10834;52.268;6.770;2023-07-09T06:55:30;26.50;99.90
21353;DHT22;10834;52.268;6.770;2023-07-09T06:58:17;26.60;99.90
21353;DHT22;10834;52.268;6.770;2023-07-09T07:01:04;26.80;99.90
21353;DHT22;10834;52.268;6.770;2023-07-09T07:03:50;27.10;99.90
21353;DHT22;10834;52.268;6.770;2023-07-09T07:06:36;27.20;99.90
21353;DHT22;10834;52.268;6.770;2023-07-09T07:09:23;27.30;99.90
21353;DHT22;10834;52.268;6.770;2023-07-09T07:12:09;28.00;99.90
21353;DHT22;10834;52.268;6.770;2023-07-09T07:14:56;28.30;99.90
21353;DHT22;10834;52.268;6.770;2023-07-09T07:17:42;28.30;99.90
21353;DHT22;10834;52.268;6.770;2023-07-09T07:20:28;28.60;99.90
21353;DHT22;10834;52.268;6.770;2023-07-09T07:23:14;29.00;99.90
21353;DHT22;10834;52.268;6.770;2023-07-09T07:26:00;29.60;95.90
21353;DHT22;10834;52.268;6.770;2023-07-09T07:28:46;30.60;87.10
21353;DHT22;10834;52.268;6.770;2023-07-09T07:31:32;31.90;79.00
21353;DHT22;10834;52.268;6.770;2023-07-09T07:34:18;33.10;71.40
21353;DHT22;10834;52.268;6.770;2023-07-09T07:37:04;33.60;67.10
21353;DHT22;10834;52.268;6.770;2023-07-09T07:39:50;33.70;66.80
21353;DHT22;10834;52.268;6.770;2023-07-09T07:42:37;34.40;59.40
21353;DHT22;10834;52.268;6.770;2023-07-09T07:45:23;35.00;59.80
21353;DHT22;10834;52.268;6.770;2023-07-09T07:48:09;35.30;56.50
21353;DHT22;10834;52.268;6.770;2023-07-09T07:51:02;35.40;54.60
21353;DHT22;10834;52.268;6.770;2023-07-09T07:53:49;34.90;55.60
21353;DHT22;10834;52.268;6.770;2023-07-09T07:56:36;35.00;56.10
21353;DHT22;10834;52.268;6.770;2023-07-09T07:59:22;36.30;53.30
21353;DHT22;10834;52.268;6.770;2023-07-09T08:02:12;36.90;52.40
21353;DHT22;10834;52.268;6.770;2023-07-09T08:04:58;36.70;52.40
21353;DHT22;10834;52.268;6.770;2023-07-09T08:07:44;36.50;52.90
21353;DHT22;10834;52.268;6.770;2023-07-09T08:10:31;37.20;53.50
21353;DHT22;10834;52.268;6.770;2023-07-09T08:13:17;38.00;49.70
21353;DHT22;10834;52.268;6.770;2023-07-09T08:16:05;38.50;48.80
21353;DHT22;10834;52.268;6.770;2023-07-09T08:18:51;37.80;48.40
21353;DHT22;10834;52.268;6.770;2023-07-09T08:21:40;37.20;49.60
21353;DHT22;10834;52.268;6.770;2023-07-09T08:24:26;37.70;49.60
21353;DHT22;10834;52.268;6.770;2023-07-09T08:27:12;38.10;49.70
21353;DHT22;10834;52.268;6.770;2023-07-09T08:29:58;37.60;49.30
21353;DHT22;10834;52.268;6.770;2023-07-09T08:32:44;36.90;50.60
21353;DHT22;10834;52.268;6.770;2023-07-09T08:35:30;37.40;49.10
21353;DHT22;10834;52.268;6.770;2023-07-09T08:38:18;38.80;47.00
21353;DHT22;10834;52.268;6.770;2023-07-09T08:44:12;38.30;46.00
21353;DHT22;10834;52.268;6.770;2023-07-09T08:50:24;38.70;47.20
21353;DHT22;10834;52.268;6.770;2023-07-09T08:53:19;38.30;48.10
21353;DHT22;10834;52.268;6.770;2023-07-09T08:56:09;37.40;49.60
21353;DHT22;10834;52.268;6.770;2023-07-09T08:59:00;37.30;50.70
21353;DHT22;10834;52.268;6.770;2023-07-09T09:01:51;37.20;50.50
21353;DHT22;10834;52.268;6.770;2023-07-09T09:04:37;36.70;50.90
21353;DHT22;10834;52.268;6.770;2023-07-09T09:07:41;36.80;51.50
21353;DHT22;10834;52.268;6.770;2023-07-09T09:10:40;36.70;52.80
21353;DHT22;10834;52.268;6.770;2023-07-09T09:13:29;36.90;51.90
21353;DHT22;10834;52.268;6.770;2023-07-09T09:16:25;37.50;50.90
21353;DHT22;10834;52.268;6.770;2023-07-09T09:19:43;38.20;49.20
21353;DHT22;10834;52.268;6.770;2023-07-09T09:22:29;39.40;46.60
21353;DHT22;10834;52.268;6.770;2023-07-09T09:25:23;39.80;45.80
21353;DHT22;10834;52.268;6.770;2023-07-09T09:28:11;40.90;46.00
21353;DHT22;10834;52.268;6.770;2023-07-09T09:30:57;41.50;43.80
21353;DHT22;10834;52.268;6.770;2023-07-09T09:33:45;40.70;44.70
21353;DHT22;10834;52.268;6.770;2023-07-09T09:36:36;40.00;43.40
21353;DHT22;10834;52.268;6.770;2023-07-09T09:39:24;39.50;43.90
21353;DHT22;10834;52.268;6.770;2023-07-09T09:42:11;39.70;45.20
21353;DHT22;10834;52.268;6.770;2023-07-09T09:44:57;40.80;44.60
21353;DHT22;10834;52.268;6.770;2023-07-09T09:47:44;40.50;42.30
21353;DHT22;10834;52.268;6.770;2023-07-09T09:50:32;40.10;42.20
21353;DHT22;10834;52.268;6.770;2023-07-09T09:53:23;40.10;41.40
21353;DHT22;10834;52.268;6.770;2023-07-09T09:56:33;40.30;42.30
21353;DHT22;10834;52.268;6.770;2023-07-09T09:59:24;40.70;42.00
21353;DHT22;10834;52.268;6.770;2023-07-09T10:02:19;41.20;43.70
21353;DHT22;10834;52.268;6.770;2023-07-09T10:05:12;41.30;43.10
21353;DHT22;10834;52.268;6.770;2023-07-09T10:08:08;40.50;43.20
21353;DHT22;10834;52.268;6.770;2023-07-09T10:11:05;40.50;42.50
21353;DHT22;10834;52.268;6.770;2023-07-09T10:13:55;40.30;42.40
21353;DHT22;10834;52.268;6.770;2023-07-09T10:16:46;40.40;43.70
21353;DHT22;10834;52.268;6.770;2023-07-09T10:19:56;40.80;42.80
21353;DHT22;10834;52.268;6.770;2023-07-09T10:22:48;40.80;41.40
21353;DHT22;10834;52.268;6.770;2023-07-09T10:25:53;40.50;42.60
21353;DHT22;10834;52.268;6.770;2023-07-09T10:34:51;40.70;43.40
21353;DHT22;10834;52.268;6.770;2023-07-09T10:40:59;41.00;42.60
21353;DHT22;10834;52.268;6.770;2023-07-09T10:43:50;40.50;41.90
21353;DHT22;10834;52.268;6.770;2023-07-09T10:46:40;39.90;43.30
21353;DHT22;10834;52.268;6.770;2023-07-09T10:49:33;39.50;41.60
21353;DHT22;10834;52.268;6.770;2023-07-09T10:52:35;39.20;42.10
21353;DHT22;10834;52.268;6.770;2023-07-09T10:55:38;38.90;41.80
21353;DHT22;10834;52.268;6.770;2023-07-09T10:58:35;38.80;44.00
21353;DHT22;10834;52.268;6.770;2023-07-09T11:01:30;38.70;44.80
21353;DHT22;10834;52.268;6.770;2023-07-09T11:04:36;38.50;43.00
21353;DHT22;10834;52.268;6.770;2023-07-09T11:07:32;38.50;43.10
21353;DHT22;10834;52.268;6.770;2023-07-09T11:13:23;38.20;42.10
21353;DHT22;10834;52.268;6.770;2023-07-09T11:16:15;38.00;43.60
21353;DHT22;10834;52.268;6.770;2023-07-09T11:19:04;38.00;42.90
21353;DHT22;10834;52.268;6.770;2023-07-09T11:22:02;38.00;45.30
21353;DHT22;10834;52.268;6.770;2023-07-09T11:25:04;38.00;45.30
21353;DHT22;10834;52.268;6.770;2023-07-09T11:27:54;37.90;43.50
21353;DHT22;10834;52.268;6.770;2023-07-09T11:30:48;37.80;44.90
21353;DHT22;10834;52.268;6.770;2023-07-09T11:33:46;37.80;45.10
21353;DHT22;10834;52.268;6.770;2023-07-09T11:36:34;37.70;44.10
21353;DHT22;10834;52.268;6.770;2023-07-09T11:39:46;37.60;45.00
21353;DHT22;10834;52.268;6.770;2023-07-09T11:42:34;37.60;44.70
21353;DHT22;10834;52.268;6.770;2023-07-09T11:45:32;37.50;44.10
21353;DHT22;10834;52.268;6.770;2023-07-09T11:51:16;37.40;43.00
21353;DHT22;10834;52.268;6.770;2023-07-09T11:54:03;37.50;43.40
21353;DHT22;10834;52.268;6.770;2023-07-09T11:56:59;37.40;44.90
21353;DHT22;10834;52.268;6.770;2023-07-09T11:59:47;37.30;43.60
21353;DHT22;10834;52.268;6.770;2023-07-09T12:02:33;37.20;45.50
21353;DHT22;10834;52.268;6.770;2023-07-09T12:05:27;37.20;43.40
21353;DHT22;10834;52.268;6.770;2023-07-09T12:08:15;37.10;41.80
21353;DHT22;10834;52.268;6.770;2023-07-09T12:11:01;37.10;42.70
21353;DHT22;10834;52.268;6.770;2023-07-09T12:13:47;37.00;41.00
21353;DHT22;10834;52.268;6.770;2023-07-09T12:16:39;37.00;43.30
21353;DHT22;10834;52.268;6.770;2023-07-09T12:19:29;37.00;42.10
21353;DHT22;10834;52.268;6.770;2023-07-09T12:22:21;37.00;46.20
21353;DHT22;10834;52.268;6.770;2023-07-09T12:25:18;36.90;44.00
21353;DHT22;10834;52.268;6.770;2023-07-09T12:28:13;36.70;42.70
21353;DHT22;10834;52.268;6.770;2023-07-09T12:31:00;36.60;42.60
21353;DHT22;10834;52.268;6.770;2023-07-09T12:33:48;36.60;44.00
21353;DHT22;10834;52.268;6.770;2023-07-09T12:36:35;36.50;47.50
21353;DHT22;10834;52.268;6.770;2023-07-09T12:39:27;36.50;46.60
21353;DHT22;10834;52.268;6.770;2023-07-09T12:42:20;36.30;44.80
21353;DHT22;10834;52.268;6.770;2023-07-09T12:45:14;36.10;44.50
21353;DHT22;10834;52.268;6.770;2023-07-09T12:48:01;36.10;45.50
21353;DHT22;10834;52.268;6.770;2023-07-09T12:50:51;36.00;47.00
21353;DHT22;10834;52.268;6.770;2023-07-09T12:53:39;36.10;49.00
21353;DHT22;10834;52.268;6.770;2023-07-09T12:56:25;36.20;48.30
21353;DHT22;10834;52.268;6.770;2023-07-09T12:59:35;36.20;46.50
21353;DHT22;10834;52.268;6.770;2023-07-09T13:02:23;36.20;48.00
21353;DHT22;10834;52.268;6.770;2023-07-09T13:05:19;36.10;50.00
21353;DHT22;10834;52.268;6.770;2023-07-09T13:08:14;35.90;50.90
21353;DHT22;10834;52.268;6.770;2023-07-09T13:11:00;35.70;46.90
21353;DHT22;10834;52.268;6.770;2023-07-09T13:13:55;35.60;45.50
21353;DHT22;10834;52.268;6.770;2023-07-09T13:16:41;35.60;46.10
21353;DHT22;10834;52.268;6.770;2023-07-09T13:19:28;35.50;48.20
21353;DHT22;10834;52.268;6.770;2023-07-09T13:22:15;35.40;49.70
21353;DHT22;10834;52.268;6.770;2023-07-09T13:25:01;35.20;46.70
21353;DHT22;10834;52.268;6.770;2023-07-09T13:27:47;35.10;47.60
21353;DHT22;10834;52.268;6.770;2023-07-09T13:30:33;35.00;46.00
21353;DHT22;10834;52.268;6.770;2023-07-09T13:33:20;35.00;48.80
21353;DHT22;10834;52.268;6.770;2023-07-09T13:36:06;35.00;46.20
21353;DHT22;10834;52.268;6.770;2023-07-09T13:38:52;34.90;46.40
21353;DHT22;10834;52.268;6.770;2023-07-09T13:41:39;34.80;46.30
21353;DHT22;10834;52.268;6.770;2023-07-09T13:44:28;34.80;46.30
21353;DHT22;10834;52.268;6.770;2023-07-09T13:47:16;34.70;46.60
21353;DHT22;10834;52.268;6.770;2023-07-09T13:50:02;34.60;48.30
21353;DHT22;10834;52.268;6.770;2023-07-09T13:52:49;34.50;48.20
21353;DHT22;10834;52.268;6.770;2023-07-09T13:55:35;34.40;47.80
21353;DHT22;10834;52.268;6.770;2023-07-09T13:58:23;34.30;50.50
21353;DHT22;10834;52.268;6.770;2023-07-09T14:01:20;34.20;49.40
21353;DHT22;10834;52.268;6.770;2023-07-09T14:04:10;34.20;49.10
21353;DHT22;10834;52.268;6.770;2023-07-09T14:06:56;34.30;50.30
21353;DHT22;10834;52.268;6.770;2023-07-09T14:09:42;34.20;51.00
21353;DHT22;10834;52.268;6.770;2023-07-09T14:12:29;34.20;53.70
21353;DHT22;10834;52.268;6.770;2023-07-09T14:15:18;34.10;49.30
21353;DHT22;10834;52.268;6.770;2023-07-09T14:18:13;34.00;46.70
21353;DHT22;10834;52.268;6.770;2023-07-09T14:21:01;34.00;48.60
21353;DHT22;10834;52.268;6.770;2023-07-09T14:23:49;34.00;46.50
21353;DHT22;10834;52.268;6.770;2023-07-09T14:26:36;33.90;46.40
21353;DHT22;10834;52.268;6.770;2023-07-09T14:29:23;33.90;47.00
21353;DHT22;10834;52.268;6.770;2023-07-09T14:32:36;33.80;46.70
21353;DHT22;10834;52.268;6.770;2023-07-09T14:35:24;33.70;50.10
21353;DHT22;10834;52.268;6.770;2023-07-09T14:41:19;33.60;50.20
21353;DHT22;10834;52.268;6.770;2023-07-09T14:44:36;33.50;48.80
21353;DHT22;10834;52.268;6.770;2023-07-09T14:47:22;33.30;53.80
21353;DHT22;10834;52.268;6.770;2023-07-09T14:50:08;33.10;56.50
21353;DHT22;10834;52.268;6.770;2023-07-09T14:52:55;32.90;58.20
21353;DHT22;10834;52.268;6.770;2023-07-09T14:55:42;32.60;60.10
21353;DHT22;10834;52.268;6.770;2023-07-09T14:58:28;32.30;60.70
21353;DHT22;10834;52.268;6.770;2023-07-09T15:01:15;32.00;61.10
21353;DHT22;10834;52.268;6.770;2023-07-09T15:07:13;31.50;63.10
21353;DHT22;10834;52.268;6.770;2023-07-09T15:10:00;31.20;68.60
21353;DHT22;10834;52.268;6.770;2023-07-09T15:12:46;31.00;72.20
21353;DHT22;10834;52.268;6.770;2023-07-09T15:15:32;30.80;76.10
21353;DHT22;10834;52.268;6.770;2023-07-09T15:18:18;30.60;70.30
21353;DHT22;10834;52.268;6.770;2023-07-09T15:21:06;30.60;68.80
21353;DHT22;10834;52.268;6.770;2023-07-09T15:23:52;30.40;71.20
21353;DHT22;10834;52.268;6.770;2023-07-09T15:26:38;30.40;72.20
21353;DHT22;10834;52.268;6.770;2023-07-09T15:29:25;30.20;78.70
21353;DHT22;10834;52.268;6.770;2023-07-09T15:32:11;30.10;89.00
21353;DHT22;10834;52.268;6.770;2023-07-09T15:34:57;30.00;94.80
21353;DHT22;10834;52.268;6.770;2023-07-09T15:37:44;29.80;99.90
21353;DHT22;10834;52.268;6.770;2023-07-09T15:40:31;29.70;99.90
21353;DHT22;10834;52.268;6.770;2023-07-09T15:43:19;29.50;99.90
21353;DHT22;10834;52.268;6.770;2023-07-09T15:46:05;29.30;94.90
21353;DHT22;10834;52.268;6.770;2023-07-09T15:48:51;29.20;94.10
21353;DHT22;10834;52.268;6.770;2023-07-09T15:51:38;29.10;93.60
21353;DHT22;10834;52.268;6.770;2023-07-09T15:54:24;28.90;93.50
21353;DHT22;10834;52.268;6.770;2023-07-09T15:57:14;28.70;96.00
21353;DHT22;10834;52.268;6.770;2023-07-09T16:00:01;28.50;99.90
21353;DHT22;10834;52.268;6.770;2023-07-09T16:02:48;28.20;99.90
21353;DHT22;10834;52.268;6.770;2023-07-09T16:05:37;27.90;99.90
21353;DHT22;10834;52.268;6.770;2023-07-09T16:08:23;27.60;99.90
21353;DHT22;10834;52.268;6.770;2023-07-09T16:11:22;27.30;99.90
21353;DHT22;10834;52.268;6.770;2023-07-09T16:14:22;27.00;99.90
21353;DHT22;10834;52.268;6.770;2023-07-09T16:17:10;26.70;99.90
21353;DHT22;10834;52.268;6.770;2023-07-09T16:19:56;26.40;99.90
21353;DHT22;10834;52.268;6.770;2023-07-09T16:22:46;26.10;99.90
21353;DHT22;10834;52.268;6.770;2023-07-09T16:25:34;25.70;99.90
21353;DHT22;10834;52.268;6.770;2023-07-09T16:28:21;24.90;99.90
21353;DHT22;10834;52.268;6.770;2023-07-09T16:31:07;24.20;99.90
21353;DHT22;10834;52.268;6.770;2023-07-09T16:33:54;23.80;99.90
21353;DHT22;10834;52.268;6.770;2023-07-09T16:36:40;23.50;99.90
21353;DHT22;10834;52.268;6.770;2023-07-09T16:39:42;23.30;99.90
21353;DHT22;10834;52.268;6.770;2023-07-09T16:42:28;23.20;99.90
21353;DHT22;10834;52.268;6.770;2023-07-09T16:45:17;23.10;99.90
21353;DHT22;10834;52.268;6.770;2023-07-09T16:48:19;23.00;99.90
21353;DHT22;10834;52.268;6.770;2023-07-09T16:51:07;23.00;99.90
21353;DHT22;10834;52.268;6.770;2023-07-09T16:53:54;23.00;99.90
21353;DHT22;10834;52.268;6.770;2023-07-09T16:56:40;22.90;99.90
21353;DHT22;10834;52.268;6.770;2023-07-09T16:59:27;22.90;99.90
21353;DHT22;10834;52.268;6.770;2023-07-09T17:02:27;22.80;99.90
21353;DHT22;10834;52.268;6.770;2023-07-09T17:05:14;22.80;99.90
21353;DHT22;10834;52.268;6.770;2023-07-09T17:08:01;22.70;99.90
21353;DHT22;10834;52.268;6.770;2023-07-09T17:10:48;22.70;99.90
21353;DHT22;10834;52.268;6.770;2023-07-09T17:13:35;22.70;99.90
21353;DHT22;10834;52.268;6.770;2023-07-09T17:16:21;22.60;99.90
21353;DHT22;10834;52.268;6.770;2023-07-09T17:19:11;22.60;99.90
21353;DHT22;10834;52.268;6.770;2023-07-09T17:21:58;22.60;99.90
21353;DHT22;10834;52.268;6.770;2023-07-09T17:24:44;22.60;99.90
21353;DHT22;10834;52.268;6.770;2023-07-09T17:27:32;22.50;99.90
21353;DHT22;10834;52.268;6.770;2023-07-09T17:30:18;22.40;99.90
21353;DHT22;10834;52.268;6.770;2023-07-09T17:33:06;22.50;99.90
21353;DHT22;10834;52.268;6.770;2023-07-09T17:35:53;22.50;99.90
21353;DHT22;10834;52.268;6.770;2023-07-09T17:38:40;22.40;99.90
21353;DHT22;10834;52.268;6.770;2023-07-09T17:41:26;22.40;99.90
21353;DHT22;10834;52.268;6.770;2023-07-09T17:44:17;22.40;99.90
21353;DHT22;10834;52.268;6.770;2023-07-09T17:47:19;22.30;99.90
21353;DHT22;10834;52.268;6.770;2023-07-09T17:50:16;22.30;99.90
21353;DHT22;10834;52.268;6.770;2023-07-09T17:53:08;22.30;99.90
21353;DHT22;10834;52.268;6.770;2023-07-09T17:55:57;22.30;99.90
21353;DHT22;10834;52.268;6.770;2023-07-09T17:58:43;22.20;99.90
21353;DHT22;10834;52.268;6.770;2023-07-09T18:01:31;22.20;99.90
21353;DHT22;10834;52.268;6.770;2023-07-09T18:04:19;22.20;99.90
21353;DHT22;10834;52.268;6.770;2023-07-09T18:07:29;22.30;99.90
21353;DHT22;10834;52.268;6.770;2023-07-09T18:10:16;22.30;99.90
21353;DHT22;10834;52.268;6.770;2023-07-09T18:13:17;22.30;99.90
21353;DHT22;10834;52.268;6.770;2023-07-09T18:16:03;22.30;99.90
21353;DHT22;10834;52.268;6.770;2023-07-09T18:18:49;22.30;99.90